Ana Sayfa
METAR-TAF:

METAR-TAF

Havaalanları :

Ngaoundéré, Kamerun

Enlem: 07-21N, Boylam: 013-34E, yükseklik: 1114 m

Güncel hava durumu gözlemi

Rapor saat 09:00 UTC de 38 dakika önce yapıldı.
Rüzgar batı/kuzeybatıdan 4 kt
Sıcaklık 23°C
Nem 83%
Basınç 1020 hPa
Görüş mesafesi 10 km veya daha fazla
1300 ft yükseklikte parçalı bulutlu

METAR: FKKN 240900Z 30004KT 9999 SCT013 23/20 Q1020

Saat: 10:38 (09:38 UTC)


TAF: eksik

4.000'den fazla havaalanı için hava durumu gözlemleri ve tahminleri (METAR ve TAF raporları).

Kullanılabilir istasyonlar harita üzerinde sarı ve kırmızı noktalarla gösterilir.

İstasyonun adını görmek için fareyi noktanın üzerinde gezdirin.

Sonrasında hava gözlem ve tahminlerini görmek için tıklayın.

Haritayı değiştirmek için: yaklaştırmak için siyah artı işaretli yeşil düğmeye ve uzaklaştırmak için de eksi işaretli düğmeye hızla tıklayın; bitişik haritalar için yeşil okları kullanın.


METAR-TAF: